Decoded Metar for LRCV (CRAIOVA in ROMANIA) (IATA:CRA) | Meteo·Mobile Aviation Weather
aviador You're here:

LRCV Decoded Metar

CRAIOVA in ROMANIA
Report Time2019-01-17 00:00:00
UTC Time2019-01-17 00:14:26
Flight Rules vfr VFR
Wind280° at 06 kt
W.Decomp.*RWY 27: 6.0 kt HW 0.7 kt RCW
W.Rank280° ranks 10
Current wind is below 280° avg. (7.5)
Visibility9999 m
Phenomena:N/A
Clouds:N/A
Expected CloudBase > 1,200 ft AGL from Temp-Dew spread
CeilingNone
Temp01°C (ISA -13)
Dew Point-2°C (81% RH)
AAT-3.4°C
QNH1016 hPa
Density Alt-955 ft
Elevation627 ft
Report Wrong Elevation
Raw Report
METAR LRCV 170000Z 28006KT CAVOK 01/M02 Q1016=

Extra information for LRCV:More info

Metar Taf Metar & Taf Last 4 Metars F.Rules Stats Wind Profile Meteogram Temp Stats Airport Information Weather charts Add Link Nearby VenuesMetar ALERT Operation Metar Decoded Social comments